sensor_id;sensor_type;location;lat;lon;timestamp;P1;P2;P0
36453;PMS5003;22478;51.740;-1.314;2023-07-22T00:00:20;4;4;
36453;PMS5003;22478;51.740;-1.314;2023-07-22T00:02:47;3;3;
36453;PMS5003;22478;51.740;-1.314;2023-07-22T00:05:14;4;4;
36453;PMS5003;22478;51.740;-1.314;2023-07-22T00:07:41;4;4;
36453;PMS5003;22478;51.740;-1.314;2023-07-22T00:10:09;4;4;
36453;PMS5003;22478;51.740;-1.314;2023-07-22T00:12:36;7;5;
36453;PMS5003;22478;51.740;-1.314;2023-07-22T00:15:03;5;5;
36453;PMS5003;22478;51.740;-1.314;2023-07-22T00:17:31;3;3;
36453;PMS5003;22478;51.740;-1.314;2023-07-22T00:19:58;8;5;
36453;PMS5003;22478;51.740;-1.314;2023-07-22T00:22:25;4;3;
36453;PMS5003;22478;51.740;-1.314;2023-07-22T00:24:52;7;4;
36453;PMS5003;22478;51.740;-1.314;2023-07-22T00:27:24;3;3;
36453;PMS5003;22478;51.740;-1.314;2023-07-22T00:29:51;3;3;
36453;PMS5003;22478;51.740;-1.314;2023-07-22T00:32:18;3;2;
36453;PMS5003;22478;51.740;-1.314;2023-07-22T00:34:45;7;4;
36453;PMS5003;22478;51.740;-1.314;2023-07-22T00:37:12;5;4;
36453;PMS5003;22478;51.740;-1.314;2023-07-22T00:39:39;7;4;
36453;PMS5003;22478;51.740;-1.314;2023-07-22T00:42:06;4;4;
36453;PMS5003;22478;51.740;-1.314;2023-07-22T00:44:33;4;2;
36453;PMS5003;22478;51.740;-1.314;2023-07-22T00:47:00;4;4;
36453;PMS5003;22478;51.740;-1.314;2023-07-22T00:49:28;5;4;
36453;PMS5003;22478;51.740;-1.314;2023-07-22T00:51:57;7;4;
36453;PMS5003;22478;51.740;-1.314;2023-07-22T00:54:28;4;4;
36453;PMS5003;22478;51.740;-1.314;2023-07-22T00:56:56;5;3;
36453;PMS5003;22478;51.740;-1.314;2023-07-22T00:59:24;6;4;
36453;PMS5003;22478;51.740;-1.314;2023-07-22T01:01:52;8;4;
36453;PMS5003;22478;51.740;-1.314;2023-07-22T01:04:19;4;4;
36453;PMS5003;22478;51.740;-1.314;2023-07-22T01:06:48;8;6;
36453;PMS5003;22478;51.740;-1.314;2023-07-22T01:09:17;5;5;
36453;PMS5003;22478;51.740;-1.314;2023-07-22T01:11:44;7;5;
36453;PMS5003;22478;51.740;-1.314;2023-07-22T01:14:11;9;6;
36453;PMS5003;22478;51.740;-1.314;2023-07-22T01:16:38;5;3;
36453;PMS5003;22478;51.740;-1.314;2023-07-22T01:19:06;5;4;
36453;PMS5003;22478;51.740;-1.314;2023-07-22T01:21:33;5;4;
36453;PMS5003;22478;51.740;-1.314;2023-07-22T01:24:01;8;5;
36453;PMS5003;22478;51.740;-1.314;2023-07-22T01:26:29;5;5;
36453;PMS5003;22478;51.740;-1.314;2023-07-22T01:29:02;5;4;
36453;PMS5003;22478;51.740;-1.314;2023-07-22T01:31:35;4;4;
36453;PMS5003;22478;51.740;-1.314;2023-07-22T01:34:02;5;5;
36453;PMS5003;22478;51.740;-1.314;2023-07-22T01:36:29;5;5;
36453;PMS5003;22478;51.740;-1.314;2023-07-22T01:38:57;6;4;
36453;PMS5003;22478;51.740;-1.314;2023-07-22T01:41:24;8;7;
36453;PMS5003;22478;51.740;-1.314;2023-07-22T01:43:51;4;3;
36453;PMS5003;22478;51.740;-1.314;2023-07-22T01:46:18;4;4;
36453;PMS5003;22478;51.740;-1.314;2023-07-22T01:48:45;5;5;
36453;PMS5003;22478;51.740;-1.314;2023-07-22T01:51:12;4;4;
36453;PMS5003;22478;51.740;-1.314;2023-07-22T01:53:39;6;6;
36453;PMS5003;22478;51.740;-1.314;2023-07-22T01:56:06;5;5;
36453;PMS5003;22478;51.740;-1.314;2023-07-22T01:58:33;4;4;
36453;PMS5003;22478;51.740;-1.314;2023-07-22T02:01:00;6;6;
36453;PMS5003;22478;51.740;-1.314;2023-07-22T02:03:28;7;5;
36453;PMS5003;22478;51.740;-1.314;2023-07-22T02:06:00;4;4;
36453;PMS5003;22478;51.740;-1.314;2023-07-22T02:08:28;5;5;
36453;PMS5003;22478;51.740;-1.314;2023-07-22T02:10:59;4;4;
36453;PMS5003;22478;51.740;-1.314;2023-07-22T02:13:27;5;5;
36453;PMS5003;22478;51.740;-1.314;2023-07-22T02:15:54;5;4;
36453;PMS5003;22478;51.740;-1.314;2023-07-22T02:18:21;5;3;
36453;PMS5003;22478;51.740;-1.314;2023-07-22T02:20:48;7;4;
36453;PMS5003;22478;51.740;-1.314;2023-07-22T02:23:15;5;3;
36453;PMS5003;22478;51.740;-1.314;2023-07-22T02:25:42;4;4;
36453;PMS5003;22478;51.740;-1.314;2023-07-22T02:28:09;7;5;
36453;PMS5003;22478;51.740;-1.314;2023-07-22T02:30:37;6;4;
36453;PMS5003;22478;51.740;-1.314;2023-07-22T02:33:05;5;3;
36453;PMS5003;22478;51.740;-1.314;2023-07-22T02:35:32;5;4;
36453;PMS5003;22478;51.740;-1.314;2023-07-22T02:37:59;5;5;
36453;PMS5003;22478;51.740;-1.314;2023-07-22T02:40:26;4;4;
36453;PMS5003;22478;51.740;-1.314;2023-07-22T02:42:53;5;5;
36453;PMS5003;22478;51.740;-1.314;2023-07-22T02:45:20;2;2;
36453;PMS5003;22478;51.740;-1.314;2023-07-22T02:47:47;5;4;
36453;PMS5003;22478;51.740;-1.314;2023-07-22T02:50:14;5;4;
36453;PMS5003;22478;51.740;-1.314;2023-07-22T02:52:41;4;3;
36453;PMS5003;22478;51.740;-1.314;2023-07-22T02:55:09;6;5;
36453;PMS5003;22478;51.740;-1.314;2023-07-22T02:57:37;3;3;
36453;PMS5003;22478;51.740;-1.314;2023-07-22T03:00:06;5;4;
36453;PMS5003;22478;51.740;-1.314;2023-07-22T03:02:34;5;5;
36453;PMS5003;22478;51.740;-1.314;2023-07-22T03:05:02;4;4;
36453;PMS5003;22478;51.740;-1.314;2023-07-22T03:07:30;5;3;
36453;PMS5003;22478;51.740;-1.314;2023-07-22T03:09:57;4;4;
36453;PMS5003;22478;51.740;-1.314;2023-07-22T03:12:24;3;3;
36453;PMS5003;22478;51.740;-1.314;2023-07-22T03:14:51;5;5;
36453;PMS5003;22478;51.740;-1.314;2023-07-22T03:17:19;5;4;
36453;PMS5003;22478;51.740;-1.314;2023-07-22T03:19:46;4;4;
36453;PMS5003;22478;51.740;-1.314;2023-07-22T03:22:14;3;2;
36453;PMS5003;22478;51.740;-1.314;2023-07-22T03:24:42;6;5;
36453;PMS5003;22478;51.740;-1.314;2023-07-22T03:27:10;4;3;
36453;PMS5003;22478;51.740;-1.314;2023-07-22T03:29:38;4;4;
36453;PMS5003;22478;51.740;-1.314;2023-07-22T03:32:05;2;2;
36453;PMS5003;22478;51.740;-1.314;2023-07-22T03:34:34;3;3;
36453;PMS5003;22478;51.740;-1.314;2023-07-22T03:37:02;4;3;
36453;PMS5003;22478;51.740;-1.314;2023-07-22T03:39:29;2;2;
36453;PMS5003;22478;51.740;-1.314;2023-07-22T03:41:56;3;3;
36453;PMS5003;22478;51.740;-1.314;2023-07-22T03:44:23;6;3;
36453;PMS5003;22478;51.740;-1.314;2023-07-22T03:46:50;6;2;
36453;PMS5003;22478;51.740;-1.314;2023-07-22T03:49:17;2;2;
36453;PMS5003;22478;51.740;-1.314;2023-07-22T03:51:44;4;4;
36453;PMS5003;22478;51.740;-1.314;2023-07-22T03:54:11;2;2;
36453;PMS5003;22478;51.740;-1.314;2023-07-22T03:56:39;3;2;
36453;PMS5003;22478;51.740;-1.314;2023-07-22T03:59:08;5;4;
36453;PMS5003;22478;51.740;-1.314;2023-07-22T04:01:35;7;3;
36453;PMS5003;22478;51.740;-1.314;2023-07-22T04:04:02;4;4;
36453;PMS5003;22478;51.740;-1.314;2023-07-22T04:06:30;4;4;
36453;PMS5003;22478;51.740;-1.314;2023-07-22T04:08:57;3;3;
36453;PMS5003;22478;51.740;-1.314;2023-07-22T04:11:25;4;3;
36453;PMS5003;22478;51.740;-1.314;2023-07-22T04:13:53;4;4;
36453;PMS5003;22478;51.740;-1.314;2023-07-22T04:16:20;4;3;
36453;PMS5003;22478;51.740;-1.314;2023-07-22T04:18:47;4;4;
36453;PMS5003;22478;51.740;-1.314;2023-07-22T04:21:14;3;2;
36453;PMS5003;22478;51.740;-1.314;2023-07-22T04:23:41;6;3;
36453;PMS5003;22478;51.740;-1.314;2023-07-22T04:26:08;3;3;
36453;PMS5003;22478;51.740;-1.314;2023-07-22T04:28:36;2;2;
36453;PMS5003;22478;51.740;-1.314;2023-07-22T04:31:03;6;4;
36453;PMS5003;22478;51.740;-1.314;2023-07-22T04:33:30;3;3;
36453;PMS5003;22478;51.740;-1.314;2023-07-22T04:35:58;4;4;
36453;PMS5003;22478;51.740;-1.314;2023-07-22T04:38:31;3;3;
36453;PMS5003;22478;51.740;-1.314;2023-07-22T04:40:58;5;3;
36453;PMS5003;22478;51.740;-1.314;2023-07-22T04:43:25;5;4;
36453;PMS5003;22478;51.740;-1.314;2023-07-22T04:45:52;3;3;
36453;PMS5003;22478;51.740;-1.314;2023-07-22T04:48:19;2;2;
36453;PMS5003;22478;51.740;-1.314;2023-07-22T04:50:48;4;3;
36453;PMS5003;22478;51.740;-1.314;2023-07-22T04:53:16;3;3;
36453;PMS5003;22478;51.740;-1.314;2023-07-22T04:55:43;4;4;
36453;PMS5003;22478;51.740;-1.314;2023-07-22T04:58:10;3;3;
36453;PMS5003;22478;51.740;-1.314;2023-07-22T05:00:37;6;2;
36453;PMS5003;22478;51.740;-1.314;2023-07-22T05:03:05;3;3;
36453;PMS5003;22478;51.740;-1.314;2023-07-22T05:05:32;6;4;
36453;PMS5003;22478;51.740;-1.314;2023-07-22T05:07:59;4;4;
36453;PMS5003;22478;51.740;-1.314;2023-07-22T05:10:26;2;2;
36453;PMS5003;22478;51.740;-1.314;2023-07-22T05:12:53;4;2;
36453;PMS5003;22478;51.740;-1.314;2023-07-22T05:15:20;2;2;
36453;PMS5003;22478;51.740;-1.314;2023-07-22T05:17:47;4;2;
36453;PMS5003;22478;51.740;-1.314;2023-07-22T05:20:14;2;2;
36453;PMS5003;22478;51.740;-1.314;2023-07-22T05:22:42;4;3;
36453;PMS5003;22478;51.740;-1.314;2023-07-22T05:25:09;3;1;
36453;PMS5003;22478;51.740;-1.314;2023-07-22T05:27:36;3;3;
36453;PMS5003;22478;51.740;-1.314;2023-07-22T05:30:04;2;2;
36453;PMS5003;22478;51.740;-1.314;2023-07-22T05:32:33;4;3;
36453;PMS5003;22478;51.740;-1.314;2023-07-22T05:35:00;3;3;
36453;PMS5003;22478;51.740;-1.314;2023-07-22T05:37:28;3;3;
36453;PMS5003;22478;51.740;-1.314;2023-07-22T05:39:55;3;3;
36453;PMS5003;22478;51.740;-1.314;2023-07-22T05:42:22;4;4;
36453;PMS5003;22478;51.740;-1.314;2023-07-22T05:44:50;3;2;
36453;PMS5003;22478;51.740;-1.314;2023-07-22T05:47:17;3;3;
36453;PMS5003;22478;51.740;-1.314;2023-07-22T05:49:44;3;3;
36453;PMS5003;22478;51.740;-1.314;2023-07-22T05:52:11;4;3;
36453;PMS5003;22478;51.740;-1.314;2023-07-22T05:54:38;5;2;
36453;PMS5003;22478;51.740;-1.314;2023-07-22T05:57:05;5;4;
36453;PMS5003;22478;51.740;-1.314;2023-07-22T05:59:33;3;3;
36453;PMS5003;22478;51.740;-1.314;2023-07-22T06:02:00;5;2;
36453;PMS5003;22478;51.740;-1.314;2023-07-22T06:04:27;4;4;
36453;PMS5003;22478;51.740;-1.314;2023-07-22T06:06:54;2;2;
36453;PMS5003;22478;51.740;-1.314;2023-07-22T06:09:21;6;3;
36453;PMS5003;22478;51.740;-1.314;2023-07-22T06:11:48;5;2;
36453;PMS5003;22478;51.740;-1.314;2023-07-22T06:14:15;4;4;
36453;PMS5003;22478;51.740;-1.314;2023-07-22T06:16:42;5;3;
36453;PMS5003;22478;51.740;-1.314;2023-07-22T06:19:09;4;2;
36453;PMS5003;22478;51.740;-1.314;2023-07-22T06:21:36;1;1;
36453;PMS5003;22478;51.740;-1.314;2023-07-22T06:24:03;3;2;
36453;PMS5003;22478;51.740;-1.314;2023-07-22T06:26:30;3;3;
36453;PMS5003;22478;51.740;-1.314;2023-07-22T06:28:57;3;3;
36453;PMS5003;22478;51.740;-1.314;2023-07-22T06:31:30;3;3;
36453;PMS5003;22478;51.740;-1.314;2023-07-22T06:33:57;2;2;
36453;PMS5003;22478;51.740;-1.314;2023-07-22T06:36:25;4;3;
36453;PMS5003;22478;51.740;-1.314;2023-07-22T06:38:52;3;2;
36453;PMS5003;22478;51.740;-1.314;2023-07-22T06:41:19;3;3;
36453;PMS5003;22478;51.740;-1.314;2023-07-22T06:43:46;6;3;
36453;PMS5003;22478;51.740;-1.314;2023-07-22T06:46:12;2;2;
36453;PMS5003;22478;51.740;-1.314;2023-07-22T06:48:40;3;3;
36453;PMS5003;22478;51.740;-1.314;2023-07-22T06:51:07;4;4;
36453;PMS5003;22478;51.740;-1.314;2023-07-22T06:53:33;3;3;
36453;PMS5003;22478;51.740;-1.314;2023-07-22T06:56:00;2;2;
36453;PMS5003;22478;51.740;-1.314;2023-07-22T06:58:27;6;4;
36453;PMS5003;22478;51.740;-1.314;2023-07-22T07:00:55;3;3;
36453;PMS5003;22478;51.740;-1.314;2023-07-22T07:03:22;2;2;
36453;PMS5003;22478;51.740;-1.314;2023-07-22T07:05:52;4;4;
36453;PMS5003;22478;51.740;-1.314;2023-07-22T07:08:20;5;2;
36453;PMS5003;22478;51.740;-1.314;2023-07-22T07:10:48;2;2;
36453;PMS5003;22478;51.740;-1.314;2023-07-22T07:13:15;4;4;
36453;PMS5003;22478;51.740;-1.314;2023-07-22T07:15:46;3;3;
36453;PMS5003;22478;51.740;-1.314;2023-07-22T07:18:14;5;3;
36453;PMS5003;22478;51.740;-1.314;2023-07-22T07:20:41;2;2;
36453;PMS5003;22478;51.740;-1.314;2023-07-22T07:23:09;6;3;
36453;PMS5003;22478;51.740;-1.314;2023-07-22T07:25:36;3;3;
36453;PMS5003;22478;51.740;-1.314;2023-07-22T07:28:04;4;4;
36453;PMS5003;22478;51.740;-1.314;2023-07-22T07:30:31;4;3;
36453;PMS5003;22478;51.740;-1.314;2023-07-22T07:32:58;5;4;
36453;PMS5003;22478;51.740;-1.314;2023-07-22T07:35:25;3;3;
36453;PMS5003;22478;51.740;-1.314;2023-07-22T07:37:52;4;4;
36453;PMS5003;22478;51.740;-1.314;2023-07-22T07:40:19;5;4;
36453;PMS5003;22478;51.740;-1.314;2023-07-22T07:42:47;5;4;
36453;PMS5003;22478;51.740;-1.314;2023-07-22T07:45:14;9;6;
36453;PMS5003;22478;51.740;-1.314;2023-07-22T07:47:41;6;5;
36453;PMS5003;22478;51.740;-1.314;2023-07-22T07:50:08;4;4;
36453;PMS5003;22478;51.740;-1.314;2023-07-22T07:52:36;3;3;
36453;PMS5003;22478;51.740;-1.314;2023-07-22T07:55:03;3;3;
36453;PMS5003;22478;51.740;-1.314;2023-07-22T07:57:31;5;5;
36453;PMS5003;22478;51.740;-1.314;2023-07-22T07:59:58;7;5;
36453;PMS5003;22478;51.740;-1.314;2023-07-22T08:02:25;3;3;
36453;PMS5003;22478;51.740;-1.314;2023-07-22T08:04:52;4;4;
36453;PMS5003;22478;51.740;-1.314;2023-07-22T08:07:19;4;4;
36453;PMS5003;22478;51.740;-1.314;2023-07-22T08:09:46;4;3;
36453;PMS5003;22478;51.740;-1.314;2023-07-22T08:12:13;3;3;
36453;PMS5003;22478;51.740;-1.314;2023-07-22T08:14:41;6;6;
36453;PMS5003;22478;51.740;-1.314;2023-07-22T08:17:09;6;6;
36453;PMS5003;22478;51.740;-1.314;2023-07-22T08:19:36;5;4;
36453;PMS5003;22478;51.740;-1.314;2023-07-22T08:22:03;8;5;
36453;PMS5003;22478;51.740;-1.314;2023-07-22T08:24:31;7;5;
36453;PMS5003;22478;51.740;-1.314;2023-07-22T08:26:58;8;7;
36453;PMS5003;22478;51.740;-1.314;2023-07-22T08:29:25;5;5;
36453;PMS5003;22478;51.740;-1.314;2023-07-22T08:31:52;7;7;
36453;PMS5003;22478;51.740;-1.314;2023-07-22T08:34:19;7;7;
36453;PMS5003;22478;51.740;-1.314;2023-07-22T08:36:46;5;4;
36453;PMS5003;22478;51.740;-1.314;2023-07-22T08:39:13;5;5;
36453;PMS5003;22478;51.740;-1.314;2023-07-22T08:41:40;6;6;
36453;PMS5003;22478;51.740;-1.314;2023-07-22T08:44:14;8;7;
36453;PMS5003;22478;51.740;-1.314;2023-07-22T08:46:45;9;6;
36453;PMS5003;22478;51.740;-1.314;2023-07-22T08:49:13;5;5;
36453;PMS5003;22478;51.740;-1.314;2023-07-22T08:51:42;9;5;
36453;PMS5003;22478;51.740;-1.314;2023-07-22T08:54:11;6;6;
36453;PMS5003;22478;51.740;-1.314;2023-07-22T08:56:45;6;6;
36453;PMS5003;22478;51.740;-1.314;2023-07-22T08:59:13;7;6;
36453;PMS5003;22478;51.740;-1.314;2023-07-22T09:01:41;5;5;
36453;PMS5003;22478;51.740;-1.314;2023-07-22T09:04:11;9;7;
36453;PMS5003;22478;51.740;-1.314;2023-07-22T09:06:40;8;6;
36453;PMS5003;22478;51.740;-1.314;2023-07-22T09:09:09;7;6;
36453;PMS5003;22478;51.740;-1.314;2023-07-22T09:11:37;6;6;
36453;PMS5003;22478;51.740;-1.314;2023-07-22T09:14:05;8;4;
36453;PMS5003;22478;51.740;-1.314;2023-07-22T09:16:33;6;5;
36453;PMS5003;22478;51.740;-1.314;2023-07-22T09:19:03;9;8;
36453;PMS5003;22478;51.740;-1.314;2023-07-22T09:21:31;7;4;
36453;PMS5003;22478;51.740;-1.314;2023-07-22T09:23:59;8;7;
36453;PMS5003;22478;51.740;-1.314;2023-07-22T09:26:26;6;6;
36453;PMS5003;22478;51.740;-1.314;2023-07-22T09:28:54;7;5;
36453;PMS5003;22478;51.740;-1.314;2023-07-22T09:31:24;8;6;
36453;PMS5003;22478;51.740;-1.314;2023-07-22T09:33:54;7;5;
36453;PMS5003;22478;51.740;-1.314;2023-07-22T09:36:42;6;6;
36453;PMS5003;22478;51.740;-1.314;2023-07-22T09:39:16;10;6;
36453;PMS5003;22478;51.740;-1.314;2023-07-22T09:41:43;8;8;
36453;PMS5003;22478;51.740;-1.314;2023-07-22T09:44:10;9;6;
36453;PMS5003;22478;51.740;-1.314;2023-07-22T09:46:37;9;8;
36453;PMS5003;22478;51.740;-1.314;2023-07-22T09:49:05;7;6;
36453;PMS5003;22478;51.740;-1.314;2023-07-22T09:51:35;6;6;
36453;PMS5003;22478;51.740;-1.314;2023-07-22T09:54:04;9;7;
36453;PMS5003;22478;51.740;-1.314;2023-07-22T09:56:43;10;9;
36453;PMS5003;22478;51.740;-1.314;2023-07-22T09:59:13;5;5;
36453;PMS5003;22478;51.740;-1.314;2023-07-22T10:01:40;5;5;
36453;PMS5003;22478;51.740;-1.314;2023-07-22T10:04:09;8;7;
36453;PMS5003;22478;51.740;-1.314;2023-07-22T10:06:38;8;6;
36453;PMS5003;22478;51.740;-1.314;2023-07-22T10:09:07;7;6;
36453;PMS5003;22478;51.740;-1.314;2023-07-22T10:11:36;8;6;
36453;PMS5003;22478;51.740;-1.314;2023-07-22T10:14:03;10;6;
36453;PMS5003;22478;51.740;-1.314;2023-07-22T10:16:32;7;7;
36453;PMS5003;22478;51.740;-1.314;2023-07-22T10:18:59;6;6;
36453;PMS5003;22478;51.740;-1.314;2023-07-22T10:21:28;5;5;
36453;PMS5003;22478;51.740;-1.314;2023-07-22T10:23:55;9;7;
36453;PMS5003;22478;51.740;-1.314;2023-07-22T10:26:24;10;7;
36453;PMS5003;22478;51.740;-1.314;2023-07-22T10:28:52;9;6;
36453;PMS5003;22478;51.740;-1.314;2023-07-22T10:31:22;10;8;
36453;PMS5003;22478;51.740;-1.314;2023-07-22T10:33:49;8;7;
36453;PMS5003;22478;51.740;-1.314;2023-07-22T10:36:16;6;6;
36453;PMS5003;22478;51.740;-1.314;2023-07-22T10:38:44;9;6;
36453;PMS5003;22478;51.740;-1.314;2023-07-22T10:41:22;8;7;
36453;PMS5003;22478;51.740;-1.314;2023-07-22T10:43:54;7;7;
36453;PMS5003;22478;51.740;-1.314;2023-07-22T10:46:30;10;7;
36453;PMS5003;22478;51.740;-1.314;2023-07-22T10:49:09;17;13;
36453;PMS5003;22478;51.740;-1.314;2023-07-22T10:51:37;21;18;
36453;PMS5003;22478;51.740;-1.314;2023-07-22T10:54:10;17;16;
36453;PMS5003;22478;51.740;-1.314;2023-07-22T10:56:40;19;14;
36453;PMS5003;22478;51.740;-1.314;2023-07-22T10:59:09;12;10;
36453;PMS5003;22478;51.740;-1.314;2023-07-22T11:01:38;22;19;
36453;PMS5003;22478;51.740;-1.314;2023-07-22T11:04:08;17;17;
36453;PMS5003;22478;51.740;-1.314;2023-07-22T11:06:37;18;18;
36453;PMS5003;22478;51.740;-1.314;2023-07-22T11:09:05;35;33;
36453;PMS5003;22478;51.740;-1.314;2023-07-22T11:11:35;32;30;
36453;PMS5003;22478;51.740;-1.314;2023-07-22T11:14:20;43;40;
36453;PMS5003;22478;51.740;-1.314;2023-07-22T11:16:47;52;52;
36453;PMS5003;22478;51.740;-1.314;2023-07-22T11:19:15;61;57;
36453;PMS5003;22478;51.740;-1.314;2023-07-22T11:21:44;62;60;
36453;PMS5003;22478;51.740;-1.314;2023-07-22T11:24:12;41;41;
36453;PMS5003;22478;51.740;-1.314;2023-07-22T11:26:40;36;36;
36453;PMS5003;22478;51.740;-1.314;2023-07-22T11:29:08;38;37;
36453;PMS5003;22478;51.740;-1.314;2023-07-22T11:31:36;33;31;
36453;PMS5003;22478;51.740;-1.314;2023-07-22T11:34:05;43;43;
36453;PMS5003;22478;51.740;-1.314;2023-07-22T11:36:33;26;23;
36453;PMS5003;22478;51.740;-1.314;2023-07-22T11:39:02;34;30;
36453;PMS5003;22478;51.740;-1.314;2023-07-22T11:41:30;44;41;
36453;PMS5003;22478;51.740;-1.314;2023-07-22T11:43:58;49;45;
36453;PMS5003;22478;51.740;-1.314;2023-07-22T11:46:26;39;39;
36453;PMS5003;22478;51.740;-1.314;2023-07-22T11:48:55;43;37;
36453;PMS5003;22478;51.740;-1.314;2023-07-22T11:51:23;45;45;
36453;PMS5003;22478;51.740;-1.314;2023-07-22T11:53:52;38;36;
36453;PMS5003;22478;51.740;-1.314;2023-07-22T11:56:21;23;23;
36453;PMS5003;22478;51.740;-1.314;2023-07-22T11:58:50;48;43;
36453;PMS5003;22478;51.740;-1.314;2023-07-22T12:01:18;50;47;
36453;PMS5003;22478;51.740;-1.314;2023-07-22T12:03:46;19;19;
36453;PMS5003;22478;51.740;-1.314;2023-07-22T12:06:14;39;37;
36453;PMS5003;22478;51.740;-1.314;2023-07-22T12:08:43;49;49;
36453;PMS5003;22478;51.740;-1.314;2023-07-22T12:11:16;38;38;
36453;PMS5003;22478;51.740;-1.314;2023-07-22T12:13:44;40;40;
36453;PMS5003;22478;51.740;-1.314;2023-07-22T12:16:12;34;30;
36453;PMS5003;22478;51.740;-1.314;2023-07-22T12:18:41;40;39;
36453;PMS5003;22478;51.740;-1.314;2023-07-22T12:21:09;42;40;
36453;PMS5003;22478;51.740;-1.314;2023-07-22T12:23:41;55;55;
36453;PMS5003;22478;51.740;-1.314;2023-07-22T12:26:09;58;55;
36453;PMS5003;22478;51.740;-1.314;2023-07-22T12:28:36;53;53;
36453;PMS5003;22478;51.740;-1.314;2023-07-22T12:31:03;56;53;
36453;PMS5003;22478;51.740;-1.314;2023-07-22T12:33:31;66;62;
36453;PMS5003;22478;51.740;-1.314;2023-07-22T12:35:58;55;51;
36453;PMS5003;22478;51.740;-1.314;2023-07-22T12:38:25;47;44;
36453;PMS5003;22478;51.740;-1.314;2023-07-22T12:40:52;58;55;
36453;PMS5003;22478;51.740;-1.314;2023-07-22T12:43:20;52;52;
36453;PMS5003;22478;51.740;-1.314;2023-07-22T12:45:47;53;50;
36453;PMS5003;22478;51.740;-1.314;2023-07-22T12:48:15;55;51;
36453;PMS5003;22478;51.740;-1.314;2023-07-22T12:50:43;61;56;
36453;PMS5003;22478;51.740;-1.314;2023-07-22T12:53:10;55;54;
36453;PMS5003;22478;51.740;-1.314;2023-07-22T12:55:38;49;47;
36453;PMS5003;22478;51.740;-1.314;2023-07-22T12:58:06;54;54;
36453;PMS5003;22478;51.740;-1.314;2023-07-22T13:00:33;48;44;
36453;PMS5003;22478;51.740;-1.314;2023-07-22T13:03:00;57;54;
36453;PMS5003;22478;51.740;-1.314;2023-07-22T13:05:28;58;58;
36453;PMS5003;22478;51.740;-1.314;2023-07-22T13:07:55;45;45;
36453;PMS5003;22478;51.740;-1.314;2023-07-22T13:10:22;44;44;
36453;PMS5003;22478;51.740;-1.314;2023-07-22T13:12:50;53;53;
36453;PMS5003;22478;51.740;-1.314;2023-07-22T13:15:17;63;63;
36453;PMS5003;22478;51.740;-1.314;2023-07-22T13:17:45;57;57;
36453;PMS5003;22478;51.740;-1.314;2023-07-22T13:20:12;66;66;
36453;PMS5003;22478;51.740;-1.314;2023-07-22T13:22:39;71;68;
36453;PMS5003;22478;51.740;-1.314;2023-07-22T13:25:07;73;71;
36453;PMS5003;22478;51.740;-1.314;2023-07-22T13:27:35;68;64;
36453;PMS5003;22478;51.740;-1.314;2023-07-22T13:30:04;70;69;
36453;PMS5003;22478;51.740;-1.314;2023-07-22T13:32:32;62;62;
36453;PMS5003;22478;51.740;-1.314;2023-07-22T13:35:00;55;55;
36453;PMS5003;22478;51.740;-1.314;2023-07-22T13:37:27;54;53;
36453;PMS5003;22478;51.740;-1.314;2023-07-22T13:39:55;50;49;
36453;PMS5003;22478;51.740;-1.314;2023-07-22T13:42:22;40;40;
36453;PMS5003;22478;51.740;-1.314;2023-07-22T13:44:50;43;40;
36453;PMS5003;22478;51.740;-1.314;2023-07-22T13:47:17;49;49;
36453;PMS5003;22478;51.740;-1.314;2023-07-22T13:49:45;52;50;
36453;PMS5003;22478;51.740;-1.314;2023-07-22T13:52:12;48;47;
36453;PMS5003;22478;51.740;-1.314;2023-07-22T13:54:39;49;48;
36453;PMS5003;22478;51.740;-1.314;2023-07-22T13:57:07;59;58;
36453;PMS5003;22478;51.740;-1.314;2023-07-22T13:59:34;53;51;
36453;PMS5003;22478;51.740;-1.314;2023-07-22T14:02:01;51;49;
36453;PMS5003;22478;51.740;-1.314;2023-07-22T14:04:28;38;38;
36453;PMS5003;22478;51.740;-1.314;2023-07-22T14:06:55;43;41;
36453;PMS5003;22478;51.740;-1.314;2023-07-22T14:09:23;42;42;
36453;PMS5003;22478;51.740;-1.314;2023-07-22T14:11:50;36;36;
36453;PMS5003;22478;51.740;-1.314;2023-07-22T14:14:18;42;40;
36453;PMS5003;22478;51.740;-1.314;2023-07-22T14:16:45;39;39;
36453;PMS5003;22478;51.740;-1.314;2023-07-22T14:19:11;43;43;
36453;PMS5003;22478;51.740;-1.314;2023-07-22T14:21:39;45;44;
36453;PMS5003;22478;51.740;-1.314;2023-07-22T14:24:06;35;35;
36453;PMS5003;22478;51.740;-1.314;2023-07-22T14:26:33;44;42;
36453;PMS5003;22478;51.740;-1.314;2023-07-22T14:29:01;38;38;
36453;PMS5003;22478;51.740;-1.314;2023-07-22T14:31:28;43;43;
36453;PMS5003;22478;51.740;-1.314;2023-07-22T14:33:55;41;41;
36453;PMS5003;22478;51.740;-1.314;2023-07-22T14:36:22;48;48;
36453;PMS5003;22478;51.740;-1.314;2023-07-22T14:38:50;47;46;
36453;PMS5003;22478;51.740;-1.314;2023-07-22T14:41:17;40;39;
36453;PMS5003;22478;51.740;-1.314;2023-07-22T14:43:44;45;43;
36453;PMS5003;22478;51.740;-1.314;2023-07-22T14:46:11;47;47;
36453;PMS5003;22478;51.740;-1.314;2023-07-22T14:48:38;32;31;
36453;PMS5003;22478;51.740;-1.314;2023-07-22T14:51:05;38;38;
36453;PMS5003;22478;51.740;-1.314;2023-07-22T14:53:33;31;31;
36453;PMS5003;22478;51.740;-1.314;2023-07-22T14:56:00;35;32;
36453;PMS5003;22478;51.740;-1.314;2023-07-22T14:58:28;20;20;
36453;PMS5003;22478;51.740;-1.314;2023-07-22T15:00:55;30;30;
36453;PMS5003;22478;51.740;-1.314;2023-07-22T15:03:21;40;40;
36453;PMS5003;22478;51.740;-1.314;2023-07-22T15:05:49;27;26;
36453;PMS5003;22478;51.740;-1.314;2023-07-22T15:08:16;26;26;
36453;PMS5003;22478;51.740;-1.314;2023-07-22T15:10:44;16;16;
36453;PMS5003;22478;51.740;-1.314;2023-07-22T15:13:11;22;21;
36453;PMS5003;22478;51.740;-1.314;2023-07-22T15:15:39;14;12;
36453;PMS5003;22478;51.740;-1.314;2023-07-22T15:18:06;14;14;
36453;PMS5003;22478;51.740;-1.314;2023-07-22T15:20:34;23;22;
36453;PMS5003;22478;51.740;-1.314;2023-07-22T15:23:01;9;9;
36453;PMS5003;22478;51.740;-1.314;2023-07-22T15:25:28;8;6;
36453;PMS5003;22478;51.740;-1.314;2023-07-22T15:27:56;21;21;
36453;PMS5003;22478;51.740;-1.314;2023-07-22T15:30:23;29;29;
36453;PMS5003;22478;51.740;-1.314;2023-07-22T15:32:51;10;10;
36453;PMS5003;22478;51.740;-1.314;2023-07-22T15:35:18;26;26;
36453;PMS5003;22478;51.740;-1.314;2023-07-22T15:37:46;28;28;
36453;PMS5003;22478;51.740;-1.314;2023-07-22T15:40:13;20;20;
36453;PMS5003;22478;51.740;-1.314;2023-07-22T15:42:40;15;15;
36453;PMS5003;22478;51.740;-1.314;2023-07-22T15:45:08;11;11;
36453;PMS5003;22478;51.740;-1.314;2023-07-22T15:47:36;21;20;
36453;PMS5003;22478;51.740;-1.314;2023-07-22T15:50:04;10;9;
36453;PMS5003;22478;51.740;-1.314;2023-07-22T15:52:32;8;7;
36453;PMS5003;22478;51.740;-1.314;2023-07-22T15:54:59;9;8;
36453;PMS5003;22478;51.740;-1.314;2023-07-22T15:57:26;16;16;
36453;PMS5003;22478;51.740;-1.314;2023-07-22T15:59:55;19;19;
36453;PMS5003;22478;51.740;-1.314;2023-07-22T16:02:22;28;28;
36453;PMS5003;22478;51.740;-1.314;2023-07-22T16:04:50;27;25;
36453;PMS5003;22478;51.740;-1.314;2023-07-22T16:07:17;38;37;
36453;PMS5003;22478;51.740;-1.314;2023-07-22T16:09:44;35;34;
36453;PMS5003;22478;51.740;-1.314;2023-07-22T16:12:11;23;23;
36453;PMS5003;22478;51.740;-1.314;2023-07-22T16:14:38;26;26;
36453;PMS5003;22478;51.740;-1.314;2023-07-22T16:17:05;25;25;
36453;PMS5003;22478;51.740;-1.314;2023-07-22T16:19:33;27;25;
36453;PMS5003;22478;51.740;-1.314;2023-07-22T16:22:00;8;7;
36453;PMS5003;22478;51.740;-1.314;2023-07-22T16:24:27;15;15;
36453;PMS5003;22478;51.740;-1.314;2023-07-22T16:26:55;8;7;